Terminal Aerodrome Forecast
Issued by NWS

Home | Current Version | Previous Version | Text Only | Print | Product List | Glossary On
Versions: 1 2 3 4 5 6 7 8 9 10 11 12 13 14 15 16 17 18 19 20 21 22 23 24 25 26 27 28 29 30 31 32 33 34 35 36 37 38 39 40 41 42 43 44 45 46 47 48 49 50
000
FTUS41 KBOX 300539 AAC
TAFACK
TAF AMD
KACK 300539Z 3006/0106 06015G25KT P6SM OVC025
     FM301100 07021G29KT P6SM VCSH OVC015
     FM301300 07021G29KT P6SM VCSH OVC020
     FM301500 07022G30KT P6SM VCSH OVC060
     FM301800 07023G31KT P6SM -SHRA OVC045
     FM302100 07022G31KT 4SM -SHRA BR OVC030
     FM302200 08022G31KT 6SM -SHRA BR OVC015
     FM010000 08022G31KT P6SM -SHRA OVC008=

USA.gov is the U.S. government's official web portal to all federal, state and local government web resources and services.